Weather reports worldwide

Advertisment
Tarfala, Sweden (2029): temperature & dewpoint: 26.06.2020 09:00:00 - 02.07.2020 09:00:00 (CEST)Tarfala, Sweden (2029): wind speed & gusts: 26.06.2020 09:00:00 - 02.07.2020 09:00:00 (CEST)Tarfala, Sweden (2029): wind direction: 26.06.2020 09:00:00 - 02.07.2020 09:00:00 (CEST)
Date & Time tt [°C] td [°C] ff [km/h] ff [kn] fx [km/h] fx [kn] dd
02.07.2020 09:00:00 - - - - - - -
02.07.2020 08:00:00 1,5 1,4 41 22 74 40 WNW
02.07.2020 07:00:00 1,0 0,9 40 21 70 38 WNW
02.07.2020 06:00:00 0,9 0,3 42 23 70 38 NW
02.07.2020 05:00:00 1,0 0,0 49 26 68 37 WNW
02.07.2020 04:00:00 1,2 -0,1 46 25 - - WNW
02.07.2020 03:00:00 1,4 -2,0 44 24 72 39 WNW
02.07.2020 02:00:00 1,5 -2,4 45 24 81 44 WNW
02.07.2020 01:00:00 1,5 -2,4 42 23 63 34 WNW
02.07.2020 00:00:00 1,6 -2,2 32 17 61 33 NW
01.07.2020 23:00:00 2,0 -2,5 36 19 70 38 NW
01.07.2020 22:00:00 2,1 -1,9 34 18 58 31 NW
01.07.2020 21:00:00 2,3 -1,3 33 18 54 29 WNW
01.07.2020 20:00:00 3,0 -1,2 34 19 55 30 WNW
01.07.2020 19:00:00 3,6 -1,0 31 17 60 32 WNW
01.07.2020 18:00:00 3,8 -0,6 33 18 55 30 WNW
01.07.2020 17:00:00 4,0 -0,6 34 18 53 29 WNW
01.07.2020 16:00:00 4,5 0,1 28 15 49 26 WNW
01.07.2020 15:00:00 4,7 0,6 27 14 48 26 WNW
01.07.2020 14:00:00 4,9 0,5 26 14 37 20 WNW
01.07.2020 13:00:00 5,1 0,8 18 10 31 17 WNW
01.07.2020 12:00:00 5,1 5,0 19 10 39 21 NW
01.07.2020 11:00:00 4,5 4,4 29 16 41 22 NW
01.07.2020 10:00:00 5,2 5,1 21 11 32 17 NW
01.07.2020 09:00:00 4,6 4,5 14 8 25 13 WNW
01.07.2020 08:00:00 2,7 2,6 5 3 11 6 S
01.07.2020 07:00:00 1,8 1,7 6 4 12 7 S
01.07.2020 06:00:00 0,6 0,5 6 4 11 6 SSE
01.07.2020 05:00:00 -0,1 -0,2 6 3 10 6 SSE
01.07.2020 04:00:00 0,5 0,4 0 0 10 6 N
01.07.2020 03:00:00 0,4 0,2 3 2 8 5 N
01.07.2020 02:00:00 0,3 0,2 4 2 15 8 NNE
01.07.2020 01:00:00 0,2 0,1 6 3 11 6 NNW
01.07.2020 00:00:00 0,2 0,1 0 0 9 5 N
30.06.2020 23:00:00 0,5 0,4 8 4 10 6 SSE
30.06.2020 22:00:00 0,5 0,4 3 2 14 8 SSE
30.06.2020 21:00:00 1,0 0,9 6 3 11 6 SSE
30.06.2020 20:00:00 0,8 0,7 7 4 16 8 SE
30.06.2020 19:00:00 1,3 1,2 2 1 15 8 WSW
30.06.2020 18:00:00 1,1 1,0 7 4 16 9 S
30.06.2020 17:00:00 0,8 0,7 13 7 16 9 SSE
30.06.2020 16:00:00 0,6 0,5 11 6 16 8 SSE
30.06.2020 15:00:00 0,5 0,4 11 6 16 9 SSE
30.06.2020 14:00:00 1,0 0,9 11 6 18 10 SSE
30.06.2020 13:00:00 1,3 1,2 5 3 8 4 NW
30.06.2020 12:00:00 0,6 0,5 4 2 14 8 SSE
30.06.2020 11:00:00 2,0 1,9 7 4 11 6 SSE
30.06.2020 10:00:00 1,9 1,8 6 3 14 8 SSE
30.06.2020 09:00:00 2,2 2,1 7 4 11 6 SSE
30.06.2020 08:00:00 2,3 2,2 9 5 14 7 SSE
30.06.2020 07:00:00 2,8 2,7 11 6 15 8 SSE
30.06.2020 06:00:00 3,4 3,3 5 3 15 8 S
30.06.2020 05:00:00 4,2 4,1 11 6 18 10 SSE
30.06.2020 04:00:00 5,0 4,9 15 8 22 12 SE
30.06.2020 03:00:00 6,0 5,9 12 7 16 9 SE
30.06.2020 02:00:00 6,7 6,3 6 4 13 7 SE
30.06.2020 01:00:00 7,1 6,4 5 3 17 9 SSE
30.06.2020 00:00:00 8,6 6,4 6 3 22 12 SSE
29.06.2020 23:00:00 10,2 6,2 15 8 22 12 SSW
29.06.2020 22:00:00 10,9 6,3 8 5 18 10 W
29.06.2020 21:00:00 11,9 6,0 5 3 14 8 NW
29.06.2020 20:00:00 11,9 6,2 9 5 22 12 NW
29.06.2020 19:00:00 13,0 6,6 11 6 27 14 WNW
29.06.2020 18:00:00 13,2 6,1 13 7 22 12 WNW
29.06.2020 17:00:00 14,4 6,0 11 6 22 12 NNW
29.06.2020 16:00:00 15,2 6,0 9 5 27 15 NW
29.06.2020 15:00:00 15,1 4,5 10 5 18 10 NW
29.06.2020 14:00:00 14,8 4,5 9 5 16 9 WNW
29.06.2020 13:00:00 14,5 4,2 9 5 16 8 WNW
29.06.2020 12:00:00 12,6 4,6 7 4 11 6 WNW
29.06.2020 11:00:00 13,0 4,4 8 4 13 7 WNW
29.06.2020 10:00:00 11,4 3,7 9 5 14 7 NW
29.06.2020 09:00:00 11,5 3,5 5 3 10 6 NW
29.06.2020 08:00:00 10,4 3,4 5 3 10 6 NW
29.06.2020 07:00:00 8,3 2,9 6 4 11 6 NW
29.06.2020 06:00:00 7,1 3,0 7 4 11 6 NNW
29.06.2020 05:00:00 5,7 2,0 7 4 11 6 NNW
29.06.2020 04:00:00 5,9 1,8 7 4 10 5 NNW
29.06.2020 03:00:00 6,5 2,6 7 4 12 7 NW
29.06.2020 02:00:00 6,4 2,5 8 5 12 7 NW
29.06.2020 01:00:00 7,4 2,5 6 3 11 6 NNW
29.06.2020 00:00:00 7,3 2,6 6 3 15 8 NNW
28.06.2020 23:00:00 9,6 2,9 4 2 12 7 S
28.06.2020 22:00:00 9,9 2,7 3 1 13 7 SSW
28.06.2020 21:00:00 10,8 2,4 10 6 16 8 SSE
28.06.2020 20:00:00 11,7 1,9 11 6 18 10 SSE
28.06.2020 19:00:00 12,5 1,5 12 7 19 10 SSE
28.06.2020 18:00:00 12,8 0,8 14 8 21 11 SSE
28.06.2020 17:00:00 12,5 0,9 14 7 24 13 SSE
28.06.2020 16:00:00 12,2 0,6 17 9 29 16 SSE
28.06.2020 15:00:00 11,5 1,4 18 10 31 17 SSE
28.06.2020 14:00:00 11,5 2,8 21 12 30 16 SE
28.06.2020 13:00:00 11,5 2,5 15 8 30 16 S
28.06.2020 12:00:00 10,5 2,1 16 9 27 15 SSE
28.06.2020 11:00:00 10,7 2,0 18 10 29 15 SSE
28.06.2020 10:00:00 9,5 1,9 13 7 23 13 S
28.06.2020 09:00:00 8,6 3,8 8 4 13 7 WNW
28.06.2020 08:00:00 6,7 2,8 9 5 12 6 NNW
28.06.2020 07:00:00 6,0 2,6 8 4 11 6 N
28.06.2020 06:00:00 3,9 1,3 7 4 11 6 NNW
28.06.2020 05:00:00 4,8 1,6 6 4 11 6 NW
28.06.2020 04:00:00 4,2 1,2 8 4 10 5 NW
28.06.2020 03:00:00 5,1 1,9 6 3 11 6 NNW
28.06.2020 02:00:00 6,1 1,8 5 3 9 5 NNW
28.06.2020 01:00:00 7,0 1,5 3 1 6 4 E
28.06.2020 00:00:00 8,2 0,9 2 1 11 6 SE
27.06.2020 23:00:00 9,0 0,9 8 4 13 7 S
27.06.2020 22:00:00 9,2 0,6 3 2 10 5 NW
27.06.2020 21:00:00 10,3 0,0 5 3 15 8 S
27.06.2020 20:00:00 11,0 -0,5 9 5 18 10 S
27.06.2020 19:00:00 11,6 -0,2 7 4 16 9 S
27.06.2020 18:00:00 12,1 -0,4 5 3 13 7 S
27.06.2020 17:00:00 12,1 -0,8 6 3 13 7 S
27.06.2020 16:00:00 11,9 0,0 8 4 16 9 SW
27.06.2020 15:00:00 11,0 -1,1 8 4 - - S
27.06.2020 14:00:00 10,5 -1,2 7 4 16 9 SSW
27.06.2020 13:00:00 9,9 -1,2 9 5 17 9 SE
27.06.2020 12:00:00 10,0 0,1 6 3 11 6 W
27.06.2020 11:00:00 8,9 -1,0 5 3 10 5 W
27.06.2020 10:00:00 8,5 -1,3 3 2 9 5 N
27.06.2020 09:00:00 6,8 -0,9 6 3 8 5 NW
27.06.2020 08:00:00 6,9 -0,1 3 1 13 7 NW
27.06.2020 07:00:00 4,4 -0,8 13 7 19 11 SE
27.06.2020 06:00:00 4,1 -2,7 7 4 11 6 N
27.06.2020 05:00:00 2,8 -2,5 10 6 14 8 NNW
27.06.2020 04:00:00 1,9 -1,7 7 4 14 7 NNW
27.06.2020 03:00:00 2,0 -1,3 8 4 19 10 N
27.06.2020 02:00:00 3,0 -0,8 17 9 20 11 NNW
27.06.2020 01:00:00 2,2 -1,1 6 3 12 7 NNW
27.06.2020 00:00:00 3,9 -0,3 5 3 13 7 NNE
26.06.2020 23:00:00 4,1 -0,5 2 1 30 16 ESE
26.06.2020 22:00:00 5,0 -1,0 11 6 31 17 NW
26.06.2020 21:00:00 5,5 -0,8 20 11 44 24 NW
26.06.2020 20:00:00 6,0 -1,0 27 15 40 21 NW
26.06.2020 19:00:00 6,8 -1,7 21 12 50 27 NNW
26.06.2020 18:00:00 5,8 -0,3 18 10 43 23 WNW
26.06.2020 17:00:00 5,9 0,2 24 13 49 26 WNW
26.06.2020 16:00:00 6,3 1,2 23 12 53 28 WNW
26.06.2020 15:00:00 6,7 0,6 26 14 54 29 NW
26.06.2020 14:00:00 6,7 0,6 27 14 54 29 NW
26.06.2020 13:00:00 6,2 0,1 29 16 55 30 WNW
26.06.2020 12:00:00 6,1 -0,9 30 16 55 30 WNW
26.06.2020 11:00:00 5,8 -0,3 26 14 64 34 WNW
26.06.2020 10:00:00 5,8 -0,7 32 18 86 47 NW
26.06.2020 09:00:00 5,6 -0,7 40 22 90 48 NW

tt = temperature
td = dewpoint
ff = wind speed
fx = gusts
dd = wind direction

Next stations